Menlo Park, CA

2:28 PM PST on November 23, 2014 (GMT -0800)
Allied Arts | Change Station
CLOSE
Current Station
Personal Weather Station
Location: Menlo Park, CA
Elevation: 70 ft
Nearby Weather Stations

Elev 70 ft 37.44 °N, 122.18 °W | Updated 1 second ago

Mostly Cloudy
Mostly Cloudy
65.3 °F
Feels Like 65.3 °F
N
0.0
Wind Variable Wind from East
Gusts 0.0 mph

Today
High -- | Low -- °F
--% Chance of Precip.
Yesterday
High -- | Low -- °F
Precip. -- in
6:56 AM 4:53 PM
New Moon, 2% visible
Pressure 30.28 in
Visibility 30.0 miles
Clouds Mostly Cloudy 20000 ft
Dew Point 43 °F
Humidity 45%
Rainfall 0.00 in
Snow Depth Not available.
UV 0.7 out of 12
Pollen 2.30 out of 12
Air Quality Not available.
Flu Activity Not available.
METAR KPAO 232147Z VRB04KT 30SM BKN200 19/06 A3028

More Conditions Fewer Conditions

Pressure 30.28 in
Visibility 30.0 miles
Clouds Mostly Cloudy 20000 ft
Dew Point 43 °F
Humidity 45%
Rainfall 0.00 in
Snow Depth Not available.
UV 0.7 out of 12
Pollen 2.30 out of 12
Air Quality Not available.
Flu Activity Not available.
METAR KPAO 232147Z VRB04KT 30SM BKN200 19/06 A3028

More Conditions Fewer Conditions

10-Day Weather Forecast

Almanac

Astronomy

Nov. 23, 2014 Rise Set
Actual Time
Civil Twilight
Nautical Twilight
Astronomical Twilight
Moon
Length of Visible Light
Length of Day
Tomorrow will be .
, % of the Moon is Illuminated

Today's Extremes

State Highs State Lows

Community

WunderPhotos

Upload Photos

1,773,186 photos uploaded!

WunderBlogs® & News

Nearby

Air Quality

  Air Quality AQ Index Pollutant
Not available.

Snow Depth

Station Depth Elevation

Earthquake Activity

City Distance Mag. Time & Date
Minimum magnitude displayed is 2.5.

Coastal Water Temperatures

Place Temperature

Nearby Weather Stations